sensor_id;sensor_type;location;lat;lon;timestamp;pressure;altitude;pressure_sealevel;temperature;humidity
79366;BME280;68833;53.160;17.920;2023-08-24T00:01:55;100947.08;;;19.89;60.97
79366;BME280;68833;53.160;17.920;2023-08-24T00:04:21;100944.95;;;19.84;60.93
79366;BME280;68833;53.160;17.920;2023-08-24T00:06:49;100946.75;;;19.79;61.12
79366;BME280;68833;53.160;17.920;2023-08-24T00:09:16;100945.21;;;19.77;61.13
79366;BME280;68833;53.160;17.920;2023-08-24T00:11:43;100947.98;;;19.75;61.18
79366;BME280;68833;53.160;17.920;2023-08-24T00:14:10;100944.68;;;19.73;61.11
79366;BME280;68833;53.160;17.920;2023-08-24T00:16:37;100948.36;;;19.70;61.27
79366;BME280;68833;53.160;17.920;2023-08-24T00:19:05;100952.65;;;19.66;61.61
79366;BME280;68833;53.160;17.920;2023-08-24T00:21:32;100956.05;;;19.61;61.56
79366;BME280;68833;53.160;17.920;2023-08-24T00:23:59;100955.11;;;19.58;61.51
79366;BME280;68833;53.160;17.920;2023-08-24T00:26:26;100951.91;;;19.54;61.73
79366;BME280;68833;53.160;17.920;2023-08-24T00:28:53;100951.81;;;19.52;61.76
79366;BME280;68833;53.160;17.920;2023-08-24T00:31:20;100954.02;;;19.50;61.77
79366;BME280;68833;53.160;17.920;2023-08-24T00:33:48;100951.52;;;19.50;61.66
79366;BME280;68833;53.160;17.920;2023-08-24T00:36:17;100954.36;;;19.51;61.78
79366;BME280;68833;53.160;17.920;2023-08-24T00:38:48;100951.38;;;19.50;61.63
79366;BME280;68833;53.160;17.920;2023-08-24T00:41:18;100951.95;;;19.49;62.00
79366;BME280;68833;53.160;17.920;2023-08-24T00:43:45;100952.52;;;19.48;61.91
79366;BME280;68833;53.160;17.920;2023-08-24T00:46:13;100955.68;;;19.49;61.95
79366;BME280;68833;53.160;17.920;2023-08-24T00:48:40;100961.96;;;19.48;61.90
79366;BME280;68833;53.160;17.920;2023-08-24T00:51:07;100962.98;;;19.45;62.03
79366;BME280;68833;53.160;17.920;2023-08-24T00:53:35;100963.02;;;19.44;62.03
79366;BME280;68833;53.160;17.920;2023-08-24T00:56:04;100961.59;;;19.44;62.09
79366;BME280;68833;53.160;17.920;2023-08-24T00:58:32;100964.00;;;19.46;62.09
79366;BME280;68833;53.160;17.920;2023-08-24T01:01:01;100969.98;;;19.48;62.01
79366;BME280;68833;53.160;17.920;2023-08-24T01:03:28;100973.70;;;19.48;62.08
79366;BME280;68833;53.160;17.920;2023-08-24T01:05:55;100975.10;;;19.49;62.12
79366;BME280;68833;53.160;17.920;2023-08-24T01:08:22;100973.48;;;19.49;62.08
79366;BME280;68833;53.160;17.920;2023-08-24T01:11:09;100970.66;;;19.48;62.03
79366;BME280;68833;53.160;17.920;2023-08-24T01:13:55;100973.50;;;19.49;62.08
79366;BME280;68833;53.160;17.920;2023-08-24T01:16:29;100972.69;;;19.47;62.06
79366;BME280;68833;53.160;17.920;2023-08-24T01:18:59;100976.52;;;19.45;62.15
79366;BME280;68833;53.160;17.920;2023-08-24T01:21:27;100973.23;;;19.43;61.94
79366;BME280;68833;53.160;17.920;2023-08-24T01:24:02;100970.82;;;19.41;62.23
79366;BME280;68833;53.160;17.920;2023-08-24T01:26:31;100969.77;;;19.40;62.08
79366;BME280;68833;53.160;17.920;2023-08-24T01:28:58;100968.16;;;19.40;62.16
79366;BME280;68833;53.160;17.920;2023-08-24T01:31:25;100964.21;;;19.41;62.22
79366;BME280;68833;53.160;17.920;2023-08-24T01:33:52;100966.80;;;19.39;62.20
79366;BME280;68833;53.160;17.920;2023-08-24T01:36:19;100967.56;;;19.37;62.11
79366;BME280;68833;53.160;17.920;2023-08-24T01:39:08;100967.31;;;19.35;62.17
79366;BME280;68833;53.160;17.920;2023-08-24T01:41:37;100970.45;;;19.32;62.23
79366;BME280;68833;53.160;17.920;2023-08-24T01:44:13;100973.60;;;19.29;62.30
79366;BME280;68833;53.160;17.920;2023-08-24T01:46:43;100973.90;;;19.26;62.22
79366;BME280;68833;53.160;17.920;2023-08-24T01:49:12;100973.16;;;19.22;62.31
79366;BME280;68833;53.160;17.920;2023-08-24T01:51:40;100972.11;;;19.17;62.45
79366;BME280;68833;53.160;17.920;2023-08-24T01:54:09;100969.02;;;19.15;62.33
79366;BME280;68833;53.160;17.920;2023-08-24T01:56:37;100964.42;;;19.14;62.59
79366;BME280;68833;53.160;17.920;2023-08-24T01:59:04;100966.42;;;19.13;62.63
79366;BME280;68833;53.160;17.920;2023-08-24T02:01:31;100965.76;;;19.12;62.63
79366;BME280;68833;53.160;17.920;2023-08-24T02:03:58;100965.63;;;19.10;62.54
79366;BME280;68833;53.160;17.920;2023-08-24T02:06:26;100963.40;;;19.08;62.78
79366;BME280;68833;53.160;17.920;2023-08-24T02:08:55;100967.61;;;19.05;62.83
79366;BME280;68833;53.160;17.920;2023-08-24T02:11:22;100964.02;;;19.01;62.84
79366;BME280;68833;53.160;17.920;2023-08-24T02:13:49;100962.79;;;18.97;62.78
79366;BME280;68833;53.160;17.920;2023-08-24T02:16:16;100962.96;;;18.92;62.85
79366;BME280;68833;53.160;17.920;2023-08-24T02:18:43;100962.94;;;18.89;62.97
79366;BME280;68833;53.160;17.920;2023-08-24T02:21:10;100964.95;;;18.86;63.02
79366;BME280;68833;53.160;17.920;2023-08-24T02:23:38;100954.99;;;18.85;63.26
79366;BME280;68833;53.160;17.920;2023-08-24T02:26:06;100960.90;;;18.85;63.19
79366;BME280;68833;53.160;17.920;2023-08-24T02:28:34;100958.64;;;18.84;63.28
79366;BME280;68833;53.160;17.920;2023-08-24T02:31:02;100960.52;;;18.81;63.29
79366;BME280;68833;53.160;17.920;2023-08-24T02:33:30;100959.91;;;18.78;63.43
79366;BME280;68833;53.160;17.920;2023-08-24T02:35:57;100958.86;;;18.73;63.31
79366;BME280;68833;53.160;17.920;2023-08-24T02:38:24;100960.16;;;18.72;63.62
79366;BME280;68833;53.160;17.920;2023-08-24T02:41:09;100965.65;;;18.73;63.53
79366;BME280;68833;53.160;17.920;2023-08-24T02:43:37;100967.08;;;18.73;63.57
79366;BME280;68833;53.160;17.920;2023-08-24T02:46:06;100966.09;;;18.70;63.60
79366;BME280;68833;53.160;17.920;2023-08-24T02:48:33;100965.92;;;18.70;63.70
79366;BME280;68833;53.160;17.920;2023-08-24T02:51:04;100962.80;;;18.67;63.82
79366;BME280;68833;53.160;17.920;2023-08-24T02:53:32;100962.15;;;18.66;63.82
79366;BME280;68833;53.160;17.920;2023-08-24T02:55:59;100959.73;;;18.64;63.85
79366;BME280;68833;53.160;17.920;2023-08-24T02:58:26;100960.30;;;18.64;63.90
79366;BME280;68833;53.160;17.920;2023-08-24T03:00:53;100961.19;;;18.63;63.87
79366;BME280;68833;53.160;17.920;2023-08-24T03:03:20;100955.27;;;18.65;63.73
79366;BME280;68833;53.160;17.920;2023-08-24T03:05:59;100953.95;;;18.67;63.65
79366;BME280;68833;53.160;17.920;2023-08-24T03:08:29;100951.55;;;18.69;63.58
79366;BME280;68833;53.160;17.920;2023-08-24T03:10:57;100948.27;;;18.70;63.70
79366;BME280;68833;53.160;17.920;2023-08-24T03:13:25;100953.33;;;18.69;63.80
79366;BME280;68833;53.160;17.920;2023-08-24T03:15:54;100958.80;;;18.65;63.89
79366;BME280;68833;53.160;17.920;2023-08-24T03:18:21;100962.53;;;18.61;63.90
79366;BME280;68833;53.160;17.920;2023-08-24T03:20:49;100963.92;;;18.57;64.02
79366;BME280;68833;53.160;17.920;2023-08-24T03:23:16;100963.42;;;18.52;64.04
79366;BME280;68833;53.160;17.920;2023-08-24T03:25:43;100963.35;;;18.49;63.95
79366;BME280;68833;53.160;17.920;2023-08-24T03:28:10;100962.48;;;18.48;64.15
79366;BME280;68833;53.160;17.920;2023-08-24T03:30:39;100962.16;;;18.47;64.20
79366;BME280;68833;53.160;17.920;2023-08-24T03:33:06;100956.34;;;18.46;64.21
79366;BME280;68833;53.160;17.920;2023-08-24T03:35:33;100950.80;;;18.47;64.32
79366;BME280;68833;53.160;17.920;2023-08-24T03:38:00;100950.98;;;18.46;64.13
79366;BME280;68833;53.160;17.920;2023-08-24T03:40:27;100953.86;;;18.46;64.30
79366;BME280;68833;53.160;17.920;2023-08-24T03:42:54;100958.38;;;18.44;64.36
79366;BME280;68833;53.160;17.920;2023-08-24T03:45:22;100953.46;;;18.42;64.34
79366;BME280;68833;53.160;17.920;2023-08-24T03:47:49;100949.91;;;18.42;64.01
79366;BME280;68833;53.160;17.920;2023-08-24T03:50:16;100944.19;;;18.43;64.22
79366;BME280;68833;53.160;17.920;2023-08-24T03:52:43;100946.83;;;18.44;64.44
79366;BME280;68833;53.160;17.920;2023-08-24T03:55:11;100948.80;;;18.43;64.41
79366;BME280;68833;53.160;17.920;2023-08-24T03:57:38;100958.23;;;18.43;64.57
79366;BME280;68833;53.160;17.920;2023-08-24T04:00:08;100960.29;;;18.41;64.71
79366;BME280;68833;53.160;17.920;2023-08-24T04:02:41;100961.85;;;18.36;64.40
79366;BME280;68833;53.160;17.920;2023-08-24T04:05:09;100966.84;;;18.31;64.56
79366;BME280;68833;53.160;17.920;2023-08-24T04:07:36;100972.84;;;18.28;64.79
79366;BME280;68833;53.160;17.920;2023-08-24T04:10:05;100973.20;;;18.28;64.51
79366;BME280;68833;53.160;17.920;2023-08-24T04:12:32;100973.52;;;18.29;64.55
79366;BME280;68833;53.160;17.920;2023-08-24T04:14:59;100974.19;;;18.29;64.50
79366;BME280;68833;53.160;17.920;2023-08-24T04:17:26;100979.11;;;18.31;64.45
79366;BME280;68833;53.160;17.920;2023-08-24T04:19:53;100978.93;;;18.31;64.62
79366;BME280;68833;53.160;17.920;2023-08-24T04:22:20;100977.89;;;18.31;64.60
79366;BME280;68833;53.160;17.920;2023-08-24T04:24:47;100981.63;;;18.30;64.59
79366;BME280;68833;53.160;17.920;2023-08-24T04:27:15;100980.23;;;18.30;64.72
79366;BME280;68833;53.160;17.920;2023-08-24T04:29:42;100980.27;;;18.29;64.80
79366;BME280;68833;53.160;17.920;2023-08-24T04:32:09;100978.15;;;18.28;64.73
79366;BME280;68833;53.160;17.920;2023-08-24T04:34:36;100976.48;;;18.30;64.87
79366;BME280;68833;53.160;17.920;2023-08-24T04:37:03;100976.32;;;18.30;64.79
79366;BME280;68833;53.160;17.920;2023-08-24T04:39:30;100973.83;;;18.30;64.88
79366;BME280;68833;53.160;17.920;2023-08-24T04:41:57;100971.36;;;18.29;64.98
79366;BME280;68833;53.160;17.920;2023-08-24T04:44:24;100969.61;;;18.28;65.11
79366;BME280;68833;53.160;17.920;2023-08-24T04:46:51;100963.79;;;18.27;65.10
79366;BME280;68833;53.160;17.920;2023-08-24T04:49:18;100964.21;;;18.25;64.77
79366;BME280;68833;53.160;17.920;2023-08-24T04:51:46;100969.54;;;18.26;65.12
79366;BME280;68833;53.160;17.920;2023-08-24T04:54:12;100973.29;;;18.25;65.31
79366;BME280;68833;53.160;17.920;2023-08-24T04:56:39;100976.52;;;18.24;65.45
79366;BME280;68833;53.160;17.920;2023-08-24T04:59:06;100976.06;;;18.23;65.37
79366;BME280;68833;53.160;17.920;2023-08-24T05:01:34;100977.00;;;18.21;65.42
79366;BME280;68833;53.160;17.920;2023-08-24T05:04:01;100982.88;;;18.20;65.62
79366;BME280;68833;53.160;17.920;2023-08-24T05:06:28;100982.91;;;18.19;65.61
79366;BME280;68833;53.160;17.920;2023-08-24T05:08:55;100983.29;;;18.19;65.57
79366;BME280;68833;53.160;17.920;2023-08-24T05:11:24;100989.81;;;18.20;65.85
79366;BME280;68833;53.160;17.920;2023-08-24T05:13:52;100990.84;;;18.22;65.84
79366;BME280;68833;53.160;17.920;2023-08-24T05:16:19;100993.42;;;18.24;65.93
79366;BME280;68833;53.160;17.920;2023-08-24T05:18:46;100991.06;;;18.25;65.72
79366;BME280;68833;53.160;17.920;2023-08-24T05:21:13;100990.31;;;18.26;65.77
79366;BME280;68833;53.160;17.920;2023-08-24T05:23:40;100990.11;;;18.27;65.83
79366;BME280;68833;53.160;17.920;2023-08-24T05:26:07;100991.84;;;18.29;65.57
79366;BME280;68833;53.160;17.920;2023-08-24T05:28:34;100990.20;;;18.29;65.94
79366;BME280;68833;53.160;17.920;2023-08-24T05:31:01;100990.11;;;18.31;65.89
79366;BME280;68833;53.160;17.920;2023-08-24T05:33:28;100993.08;;;18.33;65.99
79366;BME280;68833;53.160;17.920;2023-08-24T05:35:57;100996.02;;;18.35;65.92
79366;BME280;68833;53.160;17.920;2023-08-24T05:38:25;100999.52;;;18.37;65.96
79366;BME280;68833;53.160;17.920;2023-08-24T05:40:52;100999.33;;;18.38;65.95
79366;BME280;68833;53.160;17.920;2023-08-24T05:43:19;100998.79;;;18.39;65.73
79366;BME280;68833;53.160;17.920;2023-08-24T05:45:46;101002.12;;;18.40;66.12
79366;BME280;68833;53.160;17.920;2023-08-24T05:48:13;100998.35;;;18.40;66.09
79366;BME280;68833;53.160;17.920;2023-08-24T05:50:44;100997.92;;;18.42;66.09
79366;BME280;68833;53.160;17.920;2023-08-24T05:53:11;100995.86;;;18.45;65.88
79366;BME280;68833;53.160;17.920;2023-08-24T05:55:38;100997.02;;;18.47;65.94
79366;BME280;68833;53.160;17.920;2023-08-24T05:58:05;100996.22;;;18.50;65.86
79366;BME280;68833;53.160;17.920;2023-08-24T06:00:32;100995.98;;;18.51;65.84
79366;BME280;68833;53.160;17.920;2023-08-24T06:02:59;100992.19;;;18.53;65.94
79366;BME280;68833;53.160;17.920;2023-08-24T06:05:26;100990.85;;;18.55;66.11
79366;BME280;68833;53.160;17.920;2023-08-24T06:07:53;100990.41;;;18.58;65.98
79366;BME280;68833;53.160;17.920;2023-08-24T06:10:21;100987.04;;;18.62;66.09
79366;BME280;68833;53.160;17.920;2023-08-24T06:12:48;100989.33;;;18.67;65.89
79366;BME280;68833;53.160;17.920;2023-08-24T06:15:15;100990.38;;;18.73;65.86
79366;BME280;68833;53.160;17.920;2023-08-24T06:17:42;100992.39;;;18.76;65.99
79366;BME280;68833;53.160;17.920;2023-08-24T06:20:09;100994.20;;;18.80;66.16
79366;BME280;68833;53.160;17.920;2023-08-24T06:22:37;100998.02;;;18.83;66.28
79366;BME280;68833;53.160;17.920;2023-08-24T06:25:04;100995.72;;;18.86;66.38
79366;BME280;68833;53.160;17.920;2023-08-24T06:27:31;100999.88;;;18.91;66.49
79366;BME280;68833;53.160;17.920;2023-08-24T06:29:58;101002.57;;;18.94;66.48
79366;BME280;68833;53.160;17.920;2023-08-24T06:32:25;101001.71;;;18.98;66.54
79366;BME280;68833;53.160;17.920;2023-08-24T06:34:52;100998.38;;;19.01;66.37
79366;BME280;68833;53.160;17.920;2023-08-24T06:37:20;101001.23;;;19.06;66.49
79366;BME280;68833;53.160;17.920;2023-08-24T06:39:47;100999.16;;;19.09;66.50
79366;BME280;68833;53.160;17.920;2023-08-24T06:42:14;101005.79;;;19.13;66.36
79366;BME280;68833;53.160;17.920;2023-08-24T06:44:41;101002.27;;;19.16;66.16
79366;BME280;68833;53.160;17.920;2023-08-24T06:47:08;100998.52;;;19.20;65.96
79366;BME280;68833;53.160;17.920;2023-08-24T06:49:35;100998.48;;;19.26;65.94
79366;BME280;68833;53.160;17.920;2023-08-24T06:52:02;101003.06;;;19.31;65.46
79366;BME280;68833;53.160;17.920;2023-08-24T06:54:30;100996.45;;;19.36;65.48
79366;BME280;68833;53.160;17.920;2023-08-24T06:56:56;100997.59;;;19.39;65.27
79366;BME280;68833;53.160;17.920;2023-08-24T06:59:23;101001.04;;;19.42;65.50
79366;BME280;68833;53.160;17.920;2023-08-24T07:01:51;101002.13;;;19.46;65.19
79366;BME280;68833;53.160;17.920;2023-08-24T07:04:18;101002.86;;;19.50;64.35
79366;BME280;68833;53.160;17.920;2023-08-24T07:06:45;101002.19;;;19.53;64.04
79366;BME280;68833;53.160;17.920;2023-08-24T07:09:13;101005.91;;;19.58;63.83
79366;BME280;68833;53.160;17.920;2023-08-24T07:11:41;101007.01;;;19.61;63.27
79366;BME280;68833;53.160;17.920;2023-08-24T07:14:08;101004.87;;;19.65;62.89
79366;BME280;68833;53.160;17.920;2023-08-24T07:16:35;101012.54;;;19.70;62.94
79366;BME280;68833;53.160;17.920;2023-08-24T07:19:02;101011.86;;;19.74;62.62
79366;BME280;68833;53.160;17.920;2023-08-24T07:21:30;101014.21;;;19.77;62.30
79366;BME280;68833;53.160;17.920;2023-08-24T07:23:57;101013.73;;;19.80;62.06
79366;BME280;68833;53.160;17.920;2023-08-24T07:26:24;101016.34;;;19.82;61.64
79366;BME280;68833;53.160;17.920;2023-08-24T07:28:52;101016.41;;;19.84;61.28
79366;BME280;68833;53.160;17.920;2023-08-24T07:31:20;101015.05;;;19.87;61.08
79366;BME280;68833;53.160;17.920;2023-08-24T07:33:48;101011.91;;;19.90;61.11
79366;BME280;68833;53.160;17.920;2023-08-24T07:36:15;101017.80;;;19.94;61.26
79366;BME280;68833;53.160;17.920;2023-08-24T07:38:42;101012.91;;;20.00;60.83
79366;BME280;68833;53.160;17.920;2023-08-24T07:41:11;101010.14;;;20.06;60.54
79366;BME280;68833;53.160;17.920;2023-08-24T07:43:38;101011.08;;;20.13;60.12
79366;BME280;68833;53.160;17.920;2023-08-24T07:46:05;101009.75;;;20.19;59.13
79366;BME280;68833;53.160;17.920;2023-08-24T07:48:32;101008.58;;;20.26;58.65
79366;BME280;68833;53.160;17.920;2023-08-24T07:51:00;101015.19;;;20.33;58.07
79366;BME280;68833;53.160;17.920;2023-08-24T07:53:27;101013.48;;;20.40;57.61
79366;BME280;68833;53.160;17.920;2023-08-24T07:55:54;101020.30;;;20.47;57.68
79366;BME280;68833;53.160;17.920;2023-08-24T07:58:24;101019.90;;;20.52;57.05
79366;BME280;68833;53.160;17.920;2023-08-24T08:00:52;101019.27;;;20.58;56.67
79366;BME280;68833;53.160;17.920;2023-08-24T08:03:19;101020.84;;;20.63;55.98
79366;BME280;68833;53.160;17.920;2023-08-24T08:05:47;101019.72;;;20.67;55.84
79366;BME280;68833;53.160;17.920;2023-08-24T08:08:14;101019.89;;;20.72;55.26
79366;BME280;68833;53.160;17.920;2023-08-24T08:10:42;101018.30;;;20.76;54.85
79366;BME280;68833;53.160;17.920;2023-08-24T08:13:09;101012.54;;;20.80;54.70
79366;BME280;68833;53.160;17.920;2023-08-24T08:15:38;101014.50;;;20.84;54.47
79366;BME280;68833;53.160;17.920;2023-08-24T08:18:05;101019.05;;;20.91;54.44
79366;BME280;68833;53.160;17.920;2023-08-24T08:20:33;101025.98;;;20.95;53.98
79366;BME280;68833;53.160;17.920;2023-08-24T08:23:00;101031.16;;;20.98;53.86
79366;BME280;68833;53.160;17.920;2023-08-24T08:25:47;101026.89;;;21.02;53.58
79366;BME280;68833;53.160;17.920;2023-08-24T08:28:14;101027.20;;;21.07;53.90
79366;BME280;68833;53.160;17.920;2023-08-24T08:30:41;101028.58;;;21.12;53.55
79366;BME280;68833;53.160;17.920;2023-08-24T08:33:08;101028.57;;;21.16;53.47
79366;BME280;68833;53.160;17.920;2023-08-24T08:35:35;101027.31;;;21.19;53.91
79366;BME280;68833;53.160;17.920;2023-08-24T08:38:02;101024.66;;;21.23;53.26
79366;BME280;68833;53.160;17.920;2023-08-24T08:40:30;101029.27;;;21.27;53.24
79366;BME280;68833;53.160;17.920;2023-08-24T08:42:58;101031.54;;;21.32;53.35
79366;BME280;68833;53.160;17.920;2023-08-24T08:45:25;101030.59;;;21.36;53.08
79366;BME280;68833;53.160;17.920;2023-08-24T08:47:56;101029.16;;;21.41;52.57
79366;BME280;68833;53.160;17.920;2023-08-24T08:50:25;101031.70;;;21.47;53.03
79366;BME280;68833;53.160;17.920;2023-08-24T08:52:52;101033.79;;;21.52;52.61
79366;BME280;68833;53.160;17.920;2023-08-24T08:55:20;101036.29;;;21.56;52.57
79366;BME280;68833;53.160;17.920;2023-08-24T08:57:48;101035.39;;;21.60;52.53
79366;BME280;68833;53.160;17.920;2023-08-24T09:00:16;101033.02;;;21.65;52.45
79366;BME280;68833;53.160;17.920;2023-08-24T09:02:45;101025.74;;;21.70;52.62
79366;BME280;68833;53.160;17.920;2023-08-24T09:05:15;101030.30;;;21.76;52.50
79366;BME280;68833;53.160;17.920;2023-08-24T09:07:42;101027.15;;;21.82;52.89
79366;BME280;68833;53.160;17.920;2023-08-24T09:10:09;101025.77;;;21.88;52.96
79366;BME280;68833;53.160;17.920;2023-08-24T09:12:36;101028.48;;;21.94;52.84
79366;BME280;68833;53.160;17.920;2023-08-24T09:15:11;101028.89;;;22.00;52.69
79366;BME280;68833;53.160;17.920;2023-08-24T09:18:09;101025.80;;;22.08;52.25
79366;BME280;68833;53.160;17.920;2023-08-24T09:21:37;101017.98;;;22.18;52.27
79366;BME280;68833;53.160;17.920;2023-08-24T09:24:30;101017.89;;;22.30;52.68
79366;BME280;68833;53.160;17.920;2023-08-24T09:26:57;101015.15;;;22.41;52.57
79366;BME280;68833;53.160;17.920;2023-08-24T09:29:25;101013.83;;;22.53;52.34
79366;BME280;68833;53.160;17.920;2023-08-24T09:31:51;101007.94;;;22.65;52.28
79366;BME280;68833;53.160;17.920;2023-08-24T09:34:19;101007.64;;;22.78;52.17
79366;BME280;68833;53.160;17.920;2023-08-24T09:36:49;101009.16;;;22.89;52.14
79366;BME280;68833;53.160;17.920;2023-08-24T09:39:16;101004.48;;;23.02;51.99
79366;BME280;68833;53.160;17.920;2023-08-24T09:41:45;101001.87;;;23.14;51.51
79366;BME280;68833;53.160;17.920;2023-08-24T09:44:12;100999.97;;;23.25;51.21
79366;BME280;68833;53.160;17.920;2023-08-24T09:46:40;100996.41;;;23.34;50.93
79366;BME280;68833;53.160;17.920;2023-08-24T09:49:09;100997.29;;;23.41;50.99
79366;BME280;68833;53.160;17.920;2023-08-24T09:51:47;100993.84;;;23.48;50.88
79366;BME280;68833;53.160;17.920;2023-08-24T09:55:24;100998.45;;;23.55;50.30
79366;BME280;68833;53.160;17.920;2023-08-24T09:57:53;100996.59;;;23.59;50.39
79366;BME280;68833;53.160;17.920;2023-08-24T10:03:57;100992.44;;;23.69;50.32
79366;BME280;68833;53.160;17.920;2023-08-24T10:06:27;100991.95;;;23.71;50.40
79366;BME280;68833;53.160;17.920;2023-08-24T10:09:00;100992.94;;;23.76;50.27
79366;BME280;68833;53.160;17.920;2023-08-24T10:11:28;100993.02;;;23.80;50.29
79366;BME280;68833;53.160;17.920;2023-08-24T10:14:35;100991.06;;;23.83;49.60
79366;BME280;68833;53.160;17.920;2023-08-24T10:17:08;100987.13;;;23.86;49.41
79366;BME280;68833;53.160;17.920;2023-08-24T10:19:36;100985.38;;;23.89;49.57
79366;BME280;68833;53.160;17.920;2023-08-24T10:22:07;100984.66;;;23.92;49.34
79366;BME280;68833;53.160;17.920;2023-08-24T10:24:35;100983.35;;;23.96;49.42
79366;BME280;68833;53.160;17.920;2023-08-24T10:27:02;100976.11;;;23.99;49.33
79366;BME280;68833;53.160;17.920;2023-08-24T10:29:29;100975.58;;;24.05;49.23
79366;BME280;68833;53.160;17.920;2023-08-24T10:31:56;100972.98;;;24.13;49.19
79366;BME280;68833;53.160;17.920;2023-08-24T10:34:23;100970.13;;;24.18;48.70
79366;BME280;68833;53.160;17.920;2023-08-24T10:36:49;100968.33;;;24.21;48.50
79366;BME280;68833;53.160;17.920;2023-08-24T10:39:18;100962.42;;;24.24;48.66
79366;BME280;68833;53.160;17.920;2023-08-24T10:41:48;100960.31;;;24.29;48.57
79366;BME280;68833;53.160;17.920;2023-08-24T10:44:23;100961.56;;;24.32;48.15
79366;BME280;68833;53.160;17.920;2023-08-24T10:49:42;100957.35;;;24.31;47.39
79366;BME280;68833;53.160;17.920;2023-08-24T10:52:27;100952.56;;;24.38;47.48
79366;BME280;68833;53.160;17.920;2023-08-24T10:54:56;100953.76;;;24.48;47.17
79366;BME280;68833;53.160;17.920;2023-08-24T10:57:27;100949.23;;;24.54;46.84
79366;BME280;68833;53.160;17.920;2023-08-24T10:59:58;100950.81;;;24.60;46.54
79366;BME280;68833;53.160;17.920;2023-08-24T11:02:25;100948.04;;;24.67;46.61
79366;BME280;68833;53.160;17.920;2023-08-24T11:05:26;100937.01;;;24.77;46.52
79366;BME280;68833;53.160;17.920;2023-08-24T11:13:17;100932.27;;;25.14;45.95
79366;BME280;68833;53.160;17.920;2023-08-24T11:15:49;100925.84;;;25.24;45.81
79366;BME280;68833;53.160;17.920;2023-08-24T11:18:26;100930.70;;;25.32;45.51
79366;BME280;68833;53.160;17.920;2023-08-24T11:21:05;100934.23;;;25.38;45.33
79366;BME280;68833;53.160;17.920;2023-08-24T11:23:33;100934.09;;;25.47;45.61
79366;BME280;68833;53.160;17.920;2023-08-24T11:26:01;100929.17;;;25.47;45.15
79366;BME280;68833;53.160;17.920;2023-08-24T11:28:28;100925.76;;;25.50;45.17
79366;BME280;68833;53.160;17.920;2023-08-24T11:30:57;100920.46;;;25.56;45.13
79366;BME280;68833;53.160;17.920;2023-08-24T11:33:34;100919.75;;;25.64;44.60
79366;BME280;68833;53.160;17.920;2023-08-24T11:36:03;100917.05;;;25.72;44.20
79366;BME280;68833;53.160;17.920;2023-08-24T11:38:56;100917.48;;;25.79;43.75
79366;BME280;68833;53.160;17.920;2023-08-24T11:41:23;100916.13;;;25.86;43.07
79366;BME280;68833;53.160;17.920;2023-08-24T11:43:58;100910.94;;;25.90;42.53
79366;BME280;68833;53.160;17.920;2023-08-24T11:46:26;100910.09;;;25.92;42.67
79366;BME280;68833;53.160;17.920;2023-08-24T11:48:53;100904.23;;;25.96;42.93
79366;BME280;68833;53.160;17.920;2023-08-24T11:51:20;100907.94;;;26.02;42.00
79366;BME280;68833;53.160;17.920;2023-08-24T11:53:46;100902.06;;;26.06;41.59
79366;BME280;68833;53.160;17.920;2023-08-24T11:56:13;100899.52;;;26.10;41.84
79366;BME280;68833;53.160;17.920;2023-08-24T11:58:40;100901.20;;;26.12;41.50
79366;BME280;68833;53.160;17.920;2023-08-24T12:01:11;100896.92;;;26.13;41.19
79366;BME280;68833;53.160;17.920;2023-08-24T12:03:38;100896.25;;;26.15;40.71
79366;BME280;68833;53.160;17.920;2023-08-24T12:08:46;100890.48;;;26.18;40.40
79366;BME280;68833;53.160;17.920;2023-08-24T12:11:18;100897.89;;;26.22;40.34
79366;BME280;68833;53.160;17.920;2023-08-24T12:13:54;100893.80;;;26.24;40.12
79366;BME280;68833;53.160;17.920;2023-08-24T12:16:22;100891.73;;;26.25;40.24
79366;BME280;68833;53.160;17.920;2023-08-24T12:18:57;100885.95;;;26.25;40.22
79366;BME280;68833;53.160;17.920;2023-08-24T12:21:26;100883.15;;;26.27;40.59
79366;BME280;68833;53.160;17.920;2023-08-24T12:24:00;100882.39;;;26.30;40.45
79366;BME280;68833;53.160;17.920;2023-08-24T12:26:27;100880.31;;;26.31;39.97
79366;BME280;68833;53.160;17.920;2023-08-24T12:28:58;100878.39;;;26.31;40.34
79366;BME280;68833;53.160;17.920;2023-08-24T12:31:26;100876.48;;;26.35;40.31
79366;BME280;68833;53.160;17.920;2023-08-24T12:34:03;100873.75;;;26.37;39.93
79366;BME280;68833;53.160;17.920;2023-08-24T12:36:32;100874.99;;;26.40;40.00
79366;BME280;68833;53.160;17.920;2023-08-24T12:38:59;100872.75;;;26.39;39.91
79366;BME280;68833;53.160;17.920;2023-08-24T12:41:25;100870.70;;;26.37;39.80
79366;BME280;68833;53.160;17.920;2023-08-24T12:43:51;100863.88;;;26.37;39.62
79366;BME280;68833;53.160;17.920;2023-08-24T12:46:18;100861.98;;;26.36;39.80
79366;BME280;68833;53.160;17.920;2023-08-24T12:48:44;100853.77;;;26.34;39.87
79366;BME280;68833;53.160;17.920;2023-08-24T12:51:11;100849.95;;;26.33;39.83
79366;BME280;68833;53.160;17.920;2023-08-24T12:53:38;100856.52;;;26.32;39.84
79366;BME280;68833;53.160;17.920;2023-08-24T12:56:04;100852.14;;;26.30;40.06
79366;BME280;68833;53.160;17.920;2023-08-24T12:58:30;100847.69;;;26.29;40.06
79366;BME280;68833;53.160;17.920;2023-08-24T13:00:57;100848.27;;;26.29;40.28
79366;BME280;68833;53.160;17.920;2023-08-24T13:03:23;100850.56;;;26.30;40.21
79366;BME280;68833;53.160;17.920;2023-08-24T13:05:49;100844.92;;;26.30;39.89